sensor_id;sensor_type;location;lat;lon;timestamp;pressure;altitude;pressure_sealevel;temperature;humidity
9969;BME280;5025;48.890;9.278;2023-01-27T00:00:39;99092.25;;;-1.08;90.74
9969;BME280;5025;48.890;9.278;2023-01-27T00:03:05;99091.75;;;-0.94;90.27
9969;BME280;5025;48.890;9.278;2023-01-27T00:05:30;99098.50;;;-1.09;90.21
9969;BME280;5025;48.890;9.278;2023-01-27T00:07:56;99091.69;;;-1.12;90.50
9969;BME280;5025;48.890;9.278;2023-01-27T00:10:22;99097.56;;;-1.18;90.38
9969;BME280;5025;48.890;9.278;2023-01-27T00:12:48;99090.75;;;-1.20;90.44
9969;BME280;5025;48.890;9.278;2023-01-27T00:15:33;99089.28;;;-1.33;90.48
9969;BME280;5025;48.890;9.278;2023-01-27T00:17:58;99081.66;;;-1.18;90.34
9969;BME280;5025;48.890;9.278;2023-01-27T00:20:24;99086.88;;;-1.26;90.59
9969;BME280;5025;48.890;9.278;2023-01-27T00:23:17;99097.13;;;-1.41;90.56
9969;BME280;5025;48.890;9.278;2023-01-27T00:26:03;99090.13;;;-1.42;90.85
9969;BME280;5025;48.890;9.278;2023-01-27T00:28:31;99095.06;;;-1.19;90.56
9969;BME280;5025;48.890;9.278;2023-01-27T00:30:57;99086.78;;;-1.06;90.29
9969;BME280;5025;48.890;9.278;2023-01-27T00:33:24;99090.78;;;-0.93;89.88
9969;BME280;5025;48.890;9.278;2023-01-27T00:36:10;99093.22;;;-0.81;89.34
9969;BME280;5025;48.890;9.278;2023-01-27T00:38:35;99092.63;;;-0.75;89.10
9969;BME280;5025;48.890;9.278;2023-01-27T00:41:06;99091.06;;;-0.68;88.93
9969;BME280;5025;48.890;9.278;2023-01-27T00:43:49;99086.94;;;-0.62;88.61
9969;BME280;5025;48.890;9.278;2023-01-27T00:46:16;99087.50;;;-0.59;88.74
9969;BME280;5025;48.890;9.278;2023-01-27T00:48:41;99085.22;;;-0.53;88.38
9969;BME280;5025;48.890;9.278;2023-01-27T00:51:06;99086.91;;;-0.52;88.18
9969;BME280;5025;48.890;9.278;2023-01-27T00:53:32;99088.41;;;-0.50;87.83
9969;BME280;5025;48.890;9.278;2023-01-27T00:55:57;99082.13;;;-0.49;87.80
9969;BME280;5025;48.890;9.278;2023-01-27T00:58:27;99084.94;;;-0.50;87.82
9969;BME280;5025;48.890;9.278;2023-01-27T01:00:57;99091.63;;;-0.46;87.86
9969;BME280;5025;48.890;9.278;2023-01-27T01:03:27;99086.97;;;-0.44;87.67
9969;BME280;5025;48.890;9.278;2023-01-27T01:05:58;99089.72;;;-0.54;87.61
9969;BME280;5025;48.890;9.278;2023-01-27T01:08:24;99089.25;;;-0.49;87.47
9969;BME280;5025;48.890;9.278;2023-01-27T01:10:49;99086.75;;;-0.51;87.65
9969;BME280;5025;48.890;9.278;2023-01-27T01:13:15;99091.91;;;-0.49;87.59
9969;BME280;5025;48.890;9.278;2023-01-27T01:15:40;99096.06;;;-0.47;87.38
9969;BME280;5025;48.890;9.278;2023-01-27T01:18:08;99102.06;;;-0.45;87.43
9969;BME280;5025;48.890;9.278;2023-01-27T01:20:38;99103.88;;;-0.45;87.29
9969;BME280;5025;48.890;9.278;2023-01-27T01:23:05;99102.59;;;-0.41;87.30
9969;BME280;5025;48.890;9.278;2023-01-27T01:25:30;99102.59;;;-0.41;87.04
9969;BME280;5025;48.890;9.278;2023-01-27T01:27:55;99104.28;;;-0.40;87.18
9969;BME280;5025;48.890;9.278;2023-01-27T01:30:21;99100.47;;;-0.38;87.07
9969;BME280;5025;48.890;9.278;2023-01-27T01:32:46;99103.84;;;-0.35;86.79
9969;BME280;5025;48.890;9.278;2023-01-27T01:35:12;99100.03;;;-0.33;86.94
9969;BME280;5025;48.890;9.278;2023-01-27T01:37:37;99104.34;;;-0.32;86.64
9969;BME280;5025;48.890;9.278;2023-01-27T01:40:02;99099.03;;;-0.32;86.53
9969;BME280;5025;48.890;9.278;2023-01-27T01:42:48;99093.72;;;-0.32;86.63
9969;BME280;5025;48.890;9.278;2023-01-27T01:47:57;99092.75;;;-0.31;86.37
9969;BME280;5025;48.890;9.278;2023-01-27T01:50:23;99082.81;;;-0.29;86.43
9969;BME280;5025;48.890;9.278;2023-01-27T01:52:48;99081.00;;;-0.28;86.34
9969;BME280;5025;48.890;9.278;2023-01-27T01:55:14;99074.34;;;-0.32;86.16
9969;BME280;5025;48.890;9.278;2023-01-27T01:57:40;99069.63;;;-0.39;86.25
9969;BME280;5025;48.890;9.278;2023-01-27T02:00:07;99077.94;;;-0.51;86.42
9969;BME280;5025;48.890;9.278;2023-01-27T02:02:34;99074.25;;;-0.59;86.76
9969;BME280;5025;48.890;9.278;2023-01-27T02:05:07;99066.66;;;-0.53;86.87
9969;BME280;5025;48.890;9.278;2023-01-27T02:07:43;99068.72;;;-0.47;86.59
9969;BME280;5025;48.890;9.278;2023-01-27T02:10:12;99069.09;;;-0.42;86.52
9969;BME280;5025;48.890;9.278;2023-01-27T02:12:37;99065.31;;;-0.40;86.39
9969;BME280;5025;48.890;9.278;2023-01-27T02:15:06;99056.22;;;-0.37;86.24
9969;BME280;5025;48.890;9.278;2023-01-27T02:17:32;99065.81;;;-0.36;85.91
9969;BME280;5025;48.890;9.278;2023-01-27T02:20:07;99056.88;;;-0.35;86.03
9969;BME280;5025;48.890;9.278;2023-01-27T02:22:51;99051.81;;;-0.46;86.14
9969;BME280;5025;48.890;9.278;2023-01-27T02:27:45;99056.81;;;-0.43;86.21
9969;BME280;5025;48.890;9.278;2023-01-27T02:30:10;99060.75;;;-0.47;85.96
9969;BME280;5025;48.890;9.278;2023-01-27T02:32:36;99063.09;;;-0.44;85.98
9969;BME280;5025;48.890;9.278;2023-01-27T02:35:02;99052.19;;;-0.41;85.96
9969;BME280;5025;48.890;9.278;2023-01-27T02:37:29;99057.03;;;-0.37;85.83
9969;BME280;5025;48.890;9.278;2023-01-27T02:39:56;99070.16;;;-0.35;85.57
9969;BME280;5025;48.890;9.278;2023-01-27T02:42:23;99064.84;;;-0.35;85.45
9969;BME280;5025;48.890;9.278;2023-01-27T02:44:48;99056.22;;;-0.37;85.32
9969;BME280;5025;48.890;9.278;2023-01-27T02:47:14;99061.38;;;-0.35;85.40
9969;BME280;5025;48.890;9.278;2023-01-27T02:49:39;99052.25;;;-0.33;85.54
9969;BME280;5025;48.890;9.278;2023-01-27T02:52:05;99060.22;;;-0.33;85.23
9969;BME280;5025;48.890;9.278;2023-01-27T02:54:30;99054.91;;;-0.33;84.97
9969;BME280;5025;48.890;9.278;2023-01-27T02:56:55;99062.72;;;-0.31;85.16
9969;BME280;5025;48.890;9.278;2023-01-27T02:59:21;99058.25;;;-0.31;85.47
9969;BME280;5025;48.890;9.278;2023-01-27T03:01:46;99054.44;;;-0.28;85.27
9969;BME280;5025;48.890;9.278;2023-01-27T03:04:12;99051.81;;;-0.28;85.09
9969;BME280;5025;48.890;9.278;2023-01-27T03:06:39;99055.97;;;-0.26;85.01
9969;BME280;5025;48.890;9.278;2023-01-27T03:09:05;99050.66;;;-0.26;84.98
9969;BME280;5025;48.890;9.278;2023-01-27T03:11:30;99045.06;;;-0.23;85.10
9969;BME280;5025;48.890;9.278;2023-01-27T03:14:14;99040.06;;;-0.26;84.73
9969;BME280;5025;48.890;9.278;2023-01-27T03:16:39;99054.31;;;-0.27;84.78
9969;BME280;5025;48.890;9.278;2023-01-27T03:19:23;99053.63;;;-0.29;85.04
9969;BME280;5025;48.890;9.278;2023-01-27T03:21:51;99055.16;;;-0.26;84.78
9969;BME280;5025;48.890;9.278;2023-01-27T03:24:17;99061.28;;;-0.26;84.79
9969;BME280;5025;48.890;9.278;2023-01-27T03:26:43;99058.47;;;-0.24;85.01
9969;BME280;5025;48.890;9.278;2023-01-27T03:29:08;99060.00;;;-0.22;84.75
9969;BME280;5025;48.890;9.278;2023-01-27T03:31:52;99059.16;;;-0.22;84.73
9969;BME280;5025;48.890;9.278;2023-01-27T03:34:17;99064.31;;;-0.21;84.90
9969;BME280;5025;48.890;9.278;2023-01-27T03:36:42;99059.84;;;-0.20;84.67
9969;BME280;5025;48.890;9.278;2023-01-27T03:39:28;99051.19;;;-0.22;84.72
9969;BME280;5025;48.890;9.278;2023-01-27T03:42:12;99062.81;;;-0.23;84.74
9969;BME280;5025;48.890;9.278;2023-01-27T03:44:56;99061.81;;;-0.22;84.73
9969;BME280;5025;48.890;9.278;2023-01-27T03:47:40;99054.91;;;-0.33;84.49
9969;BME280;5025;48.890;9.278;2023-01-27T03:50:05;99059.41;;;-0.33;84.89
9969;BME280;5025;48.890;9.278;2023-01-27T03:52:36;99067.06;;;-0.30;84.86
9969;BME280;5025;48.890;9.278;2023-01-27T03:55:01;99059.91;;;-0.30;84.96
9969;BME280;5025;48.890;9.278;2023-01-27T03:57:26;99063.28;;;-0.28;84.73
9969;BME280;5025;48.890;9.278;2023-01-27T03:59:52;99066.59;;;-0.26;84.90
9969;BME280;5025;48.890;9.278;2023-01-27T04:02:17;99062.25;;;-0.27;84.58
9969;BME280;5025;48.890;9.278;2023-01-27T04:05:01;99059.59;;;-0.27;84.88
9969;BME280;5025;48.890;9.278;2023-01-27T04:07:45;99056.97;;;-0.27;84.65
9969;BME280;5025;48.890;9.278;2023-01-27T04:10:10;99074.41;;;-0.24;84.54
9969;BME280;5025;48.890;9.278;2023-01-27T04:12:35;99073.44;;;-0.23;84.55
9969;BME280;5025;48.890;9.278;2023-01-27T04:15:00;99070.78;;;-0.23;84.62
9969;BME280;5025;48.890;9.278;2023-01-27T04:17:26;99068.13;;;-0.23;84.45
9969;BME280;5025;48.890;9.278;2023-01-27T04:19:51;99074.41;;;-0.24;84.44
9969;BME280;5025;48.890;9.278;2023-01-27T04:22:16;99077.88;;;-0.24;84.55
9969;BME280;5025;48.890;9.278;2023-01-27T04:24:42;99077.72;;;-0.22;84.56
9969;BME280;5025;48.890;9.278;2023-01-27T04:27:09;99072.41;;;-0.22;84.55
9969;BME280;5025;48.890;9.278;2023-01-27T04:29:37;99080.22;;;-0.21;84.51
9969;BME280;5025;48.890;9.278;2023-01-27T04:32:06;99079.41;;;-0.21;84.31
9969;BME280;5025;48.890;9.278;2023-01-27T04:34:31;99078.59;;;-0.22;84.28
9969;BME280;5025;48.890;9.278;2023-01-27T04:36:57;99073.59;;;-0.25;84.18
9969;BME280;5025;48.890;9.278;2023-01-27T04:39:24;99079.56;;;-0.23;84.27
9969;BME280;5025;48.890;9.278;2023-01-27T04:41:50;99075.22;;;-0.24;84.16
9969;BME280;5025;48.890;9.278;2023-01-27T04:44:16;99075.22;;;-0.24;84.26
9969;BME280;5025;48.890;9.278;2023-01-27T04:46:44;99078.03;;;-0.25;84.31
9969;BME280;5025;48.890;9.278;2023-01-27T04:49:10;99075.53;;;-0.27;84.26
9969;BME280;5025;48.890;9.278;2023-01-27T04:51:35;99061.28;;;-0.26;84.09
9969;BME280;5025;48.890;9.278;2023-01-27T04:54:01;99078.19;;;-0.27;84.42
9969;BME280;5025;48.890;9.278;2023-01-27T04:56:36;99078.03;;;-0.25;84.31
9969;BME280;5025;48.890;9.278;2023-01-27T04:59:04;99076.09;;;-0.23;84.19
9969;BME280;5025;48.890;9.278;2023-01-27T05:01:29;99079.56;;;-0.23;84.37
9969;BME280;5025;48.890;9.278;2023-01-27T05:03:55;99080.53;;;-0.24;84.21
9969;BME280;5025;48.890;9.278;2023-01-27T05:06:21;99083.88;;;-0.22;84.19
9969;BME280;5025;48.890;9.278;2023-01-27T05:08:47;99073.28;;;-0.22;84.33
9969;BME280;5025;48.890;9.278;2023-01-27T05:11:13;99064.59;;;-0.24;83.90
9969;BME280;5025;48.890;9.278;2023-01-27T05:13:38;99066.75;;;-0.27;84.23
9969;BME280;5025;48.890;9.278;2023-01-27T05:16:13;99079.72;;;-0.24;84.30
9969;BME280;5025;48.890;9.278;2023-01-27T05:18:39;99087.53;;;-0.23;84.13
9969;BME280;5025;48.890;9.278;2023-01-27T05:21:06;99091.84;;;-0.22;84.19
9969;BME280;5025;48.890;9.278;2023-01-27T05:23:31;99096.16;;;-0.21;84.10
9969;BME280;5025;48.890;9.278;2023-01-27T05:26:11;99097.53;;;-0.16;84.13
9969;BME280;5025;48.890;9.278;2023-01-27T05:28:38;99094.06;;;-0.17;84.19
9969;BME280;5025;48.890;9.278;2023-01-27T05:31:09;99093.03;;;-0.16;84.18
9969;BME280;5025;48.890;9.278;2023-01-27T05:33:35;99099.34;;;-0.17;84.02
9969;BME280;5025;48.890;9.278;2023-01-27T05:36:02;99102.84;;;-0.16;84.12
9969;BME280;5025;48.890;9.278;2023-01-27T05:38:28;99102.84;;;-0.16;83.97
9969;BME280;5025;48.890;9.278;2023-01-27T05:40:55;99099.22;;;-0.15;83.95
9969;BME280;5025;48.890;9.278;2023-01-27T05:43:21;99104.50;;;-0.15;84.19
9969;BME280;5025;48.890;9.278;2023-01-27T05:45:46;99102.16;;;-0.19;83.74
9969;BME280;5025;48.890;9.278;2023-01-27T05:48:11;99111.78;;;-0.17;83.96
9969;BME280;5025;48.890;9.278;2023-01-27T05:50:36;99097.53;;;-0.16;83.94
9969;BME280;5025;48.890;9.278;2023-01-27T05:53:02;99096.72;;;-0.17;83.86
9969;BME280;5025;48.890;9.278;2023-01-27T05:55:27;99107.16;;;-0.15;83.94
9969;BME280;5025;48.890;9.278;2023-01-27T05:57:53;99094.19;;;-0.19;83.91
9969;BME280;5025;48.890;9.278;2023-01-27T06:00:18;99102.84;;;-0.16;83.78
9969;BME280;5025;48.890;9.278;2023-01-27T06:02:44;99108.28;;;-0.18;83.67
9969;BME280;5025;48.890;9.278;2023-01-27T06:05:09;99105.66;;;-0.18;83.66
9969;BME280;5025;48.890;9.278;2023-01-27T06:07:34;99109.44;;;-0.21;83.65
9969;BME280;5025;48.890;9.278;2023-01-27T06:10:00;99099.81;;;-0.22;83.86
9969;BME280;5025;48.890;9.278;2023-01-27T06:12:25;99108.59;;;-0.21;83.63
9969;BME280;5025;48.890;9.278;2023-01-27T06:14:50;99106.78;;;-0.21;83.88
9969;BME280;5025;48.890;9.278;2023-01-27T06:17:15;99101.47;;;-0.21;83.77
9969;BME280;5025;48.890;9.278;2023-01-27T06:19:41;99105.66;;;-0.18;83.76
9969;BME280;5025;48.890;9.278;2023-01-27T06:22:06;99112.94;;;-0.20;83.69
9969;BME280;5025;48.890;9.278;2023-01-27T06:24:31;99116.25;;;-0.18;83.54
9969;BME280;5025;48.890;9.278;2023-01-27T06:26:56;99113.75;;;-0.20;83.52
9969;BME280;5025;48.890;9.278;2023-01-27T06:29:22;99115.59;;;-0.20;83.33
9969;BME280;5025;48.890;9.278;2023-01-27T06:31:47;99110.44;;;-0.22;83.44
9969;BME280;5025;48.890;9.278;2023-01-27T06:34:12;99108.44;;;-0.20;83.47
9969;BME280;5025;48.890;9.278;2023-01-27T06:36:37;99116.41;;;-0.20;83.19
9969;BME280;5025;48.890;9.278;2023-01-27T06:39:03;99118.53;;;-0.23;83.37
9969;BME280;5025;48.890;9.278;2023-01-27T06:41:28;99118.53;;;-0.23;83.39
9969;BME280;5025;48.890;9.278;2023-01-27T06:43:53;99122.03;;;-0.23;83.40
9969;BME280;5025;48.890;9.278;2023-01-27T06:46:19;99130.66;;;-0.21;83.23
9969;BME280;5025;48.890;9.278;2023-01-27T06:48:44;99135.16;;;-0.21;83.34
9969;BME280;5025;48.890;9.278;2023-01-27T06:51:09;99133.47;;;-0.22;83.66
9969;BME280;5025;48.890;9.278;2023-01-27T06:53:34;99147.28;;;-0.19;83.45
9969;BME280;5025;48.890;9.278;2023-01-27T06:56:01;99149.78;;;-0.17;83.42
9969;BME280;5025;48.890;9.278;2023-01-27T06:58:27;99155.91;;;-0.16;83.15
9969;BME280;5025;48.890;9.278;2023-01-27T07:00:52;99158.88;;;-0.20;83.21
9969;BME280;5025;48.890;9.278;2023-01-27T07:03:18;99163.88;;;-0.16;83.32
9969;BME280;5025;48.890;9.278;2023-01-27T07:05:43;99170.72;;;-0.14;83.48
9969;BME280;5025;48.890;9.278;2023-01-27T07:08:09;99172.53;;;-0.14;83.44
9969;BME280;5025;48.890;9.278;2023-01-27T07:10:35;99176.84;;;-0.13;83.30
9969;BME280;5025;48.890;9.278;2023-01-27T07:13:07;99174.88;;;-0.11;83.38
9969;BME280;5025;48.890;9.278;2023-01-27T07:15:33;99176.84;;;-0.13;83.27
9969;BME280;5025;48.890;9.278;2023-01-27T07:18:00;99169.88;;;-0.14;83.42
9969;BME280;5025;48.890;9.278;2023-01-27T07:20:25;99171.84;;;-0.16;83.42
9969;BME280;5025;48.890;9.278;2023-01-27T07:22:55;99173.53;;;-0.15;83.44
9969;BME280;5025;48.890;9.278;2023-01-27T07:25:20;99182.84;;;-0.11;83.42
9969;BME280;5025;48.890;9.278;2023-01-27T07:27:45;99185.50;;;-0.11;83.33
9969;BME280;5025;48.890;9.278;2023-01-27T07:30:11;99187.19;;;-0.10;83.29
9969;BME280;5025;48.890;9.278;2023-01-27T07:32:36;99188.00;;;-0.10;83.35
9969;BME280;5025;48.890;9.278;2023-01-27T07:35:02;99195.97;;;-0.10;83.05
9969;BME280;5025;48.890;9.278;2023-01-27T07:37:27;99196.81;;;-0.09;83.32
9969;BME280;5025;48.890;9.278;2023-01-27T07:39:52;99195.81;;;-0.08;83.15
9969;BME280;5025;48.890;9.278;2023-01-27T07:42:17;99208.94;;;-0.07;83.31
9969;BME280;5025;48.890;9.278;2023-01-27T07:44:43;99202.81;;;-0.07;83.09
9969;BME280;5025;48.890;9.278;2023-01-27T07:47:08;99201.84;;;-0.06;82.72
9969;BME280;5025;48.890;9.278;2023-01-27T07:49:33;99208.13;;;-0.07;83.15
9969;BME280;5025;48.890;9.278;2023-01-27T07:51:58;99210.91;;;-0.09;83.03
9969;BME280;5025;48.890;9.278;2023-01-27T07:54:24;99212.59;;;-0.08;83.07
9969;BME280;5025;48.890;9.278;2023-01-27T07:56:49;99214.09;;;-0.05;82.91
9969;BME280;5025;48.890;9.278;2023-01-27T07:59:14;99215.09;;;-0.06;82.83
9969;BME280;5025;48.890;9.278;2023-01-27T08:01:39;99214.41;;;-0.08;83.07
9969;BME280;5025;48.890;9.278;2023-01-27T08:04:06;99214.25;;;-0.07;82.94
9969;BME280;5025;48.890;9.278;2023-01-27T08:06:31;99211.75;;;-0.08;82.83
9969;BME280;5025;48.890;9.278;2023-01-27T08:08:56;99219.56;;;-0.07;82.96
9969;BME280;5025;48.890;9.278;2023-01-27T08:11:21;99217.06;;;-0.08;82.79
9969;BME280;5025;48.890;9.278;2023-01-27T08:13:47;99213.03;;;-0.12;82.63
9969;BME280;5025;48.890;9.278;2023-01-27T08:16:13;99219.03;;;-0.10;82.91
9969;BME280;5025;48.890;9.278;2023-01-27T08:18:39;99222.50;;;-0.10;82.56
9969;BME280;5025;48.890;9.278;2023-01-27T08:21:06;99224.50;;;-0.12;82.48
9969;BME280;5025;48.890;9.278;2023-01-27T08:23:32;99227.81;;;-0.10;82.49
9969;BME280;5025;48.890;9.278;2023-01-27T08:26:01;99228.53;;;-0.08;82.60
9969;BME280;5025;48.890;9.278;2023-01-27T08:28:28;99231.03;;;-0.06;82.59
9969;BME280;5025;48.890;9.278;2023-01-27T08:30:54;99233.53;;;-0.05;82.41
9969;BME280;5025;48.890;9.278;2023-01-27T08:33:21;99234.66;;;-0.07;82.26
9969;BME280;5025;48.890;9.278;2023-01-27T08:35:47;99242.47;;;-0.06;82.12
9969;BME280;5025;48.890;9.278;2023-01-27T08:38:14;99238.00;;;-0.05;82.24
9969;BME280;5025;48.890;9.278;2023-01-27T08:40:41;99234.34;;;-0.04;82.09
9969;BME280;5025;48.890;9.278;2023-01-27T08:43:06;99236.03;;;-0.03;82.00
9969;BME280;5025;48.890;9.278;2023-01-27T08:45:32;99239.53;;;-0.03;81.95
9969;BME280;5025;48.890;9.278;2023-01-27T08:47:58;99247.50;;;-0.03;81.99
9969;BME280;5025;48.890;9.278;2023-01-27T08:50:24;99243.16;;;-0.04;81.79
9969;BME280;5025;48.890;9.278;2023-01-27T08:52:49;99250.00;;;-0.01;81.81
9969;BME280;5025;48.890;9.278;2023-01-27T08:55:14;99250.00;;;-0.01;81.93
9969;BME280;5025;48.890;9.278;2023-01-27T08:57:40;99244.69;;;-0.01;81.79
9969;BME280;5025;48.890;9.278;2023-01-27T09:00:06;99258.09;;;-0.03;81.50
9969;BME280;5025;48.890;9.278;2023-01-27T09:02:33;99255.31;;;-0.01;81.55
9969;BME280;5025;48.890;9.278;2023-01-27T09:04:58;99246.66;;;-0.03;81.73
9969;BME280;5025;48.890;9.278;2023-01-27T09:07:23;99239.53;;;-0.03;81.53
9969;BME280;5025;48.890;9.278;2023-01-27T09:09:49;99237.53;;;-0.01;81.45
9969;BME280;5025;48.890;9.278;2023-01-27T09:12:15;99246.03;;;0.03;81.34
9969;BME280;5025;48.890;9.278;2023-01-27T09:14:41;99243.53;;;0.02;81.52
9969;BME280;5025;48.890;9.278;2023-01-27T09:17:06;99243.53;;;0.02;81.29
9969;BME280;5025;48.890;9.278;2023-01-27T09:19:31;99241.06;;;0.00;81.16
9969;BME280;5025;48.890;9.278;2023-01-27T09:21:57;99241.72;;;0.02;81.26
9969;BME280;5025;48.890;9.278;2023-01-27T09:24:22;99244.09;;;0.05;81.22
9969;BME280;5025;48.890;9.278;2023-01-27T09:26:48;99243.78;;;0.08;81.34
9969;BME280;5025;48.890;9.278;2023-01-27T09:29:13;99244.47;;;0.10;81.00
9969;BME280;5025;48.890;9.278;2023-01-27T09:31:38;99249.63;;;0.12;80.90
9969;BME280;5025;48.890;9.278;2023-01-27T09:34:04;99253.09;;;0.12;81.02
9969;BME280;5025;48.890;9.278;2023-01-27T09:36:31;99248.50;;;0.14;81.14
9969;BME280;5025;48.890;9.278;2023-01-27T09:39:02;99250.16;;;0.15;81.05
9969;BME280;5025;48.890;9.278;2023-01-27T09:44:51;99249.03;;;0.18;80.74
9969;BME280;5025;48.890;9.278;2023-01-27T09:53:18;99251.91;;;0.25;80.56
9969;BME280;5025;48.890;9.278;2023-01-27T09:55:52;99252.75;;;0.25;80.67
9969;BME280;5025;48.890;9.278;2023-01-27T09:58:43;99256.22;;;0.26;80.56
9969;BME280;5025;48.890;9.278;2023-01-27T10:01:21;99245.31;;;0.29;80.56
9969;BME280;5025;48.890;9.278;2023-01-27T10:04:03;99248.63;;;0.31;80.54
9969;BME280;5025;48.890;9.278;2023-01-27T10:12:19;99246.75;;;0.41;80.37
9969;BME280;5025;48.890;9.278;2023-01-27T10:20:19;99251.75;;;0.44;80.13
9969;BME280;5025;48.890;9.278;2023-01-27T10:26:30;99255.50;;;0.51;79.96
9969;BME280;5025;48.890;9.278;2023-01-27T10:31:36;99257.28;;;0.51;79.89
9969;BME280;5025;48.890;9.278;2023-01-27T10:34:35;99251.81;;;0.52;79.91
9969;BME280;5025;48.890;9.278;2023-01-27T10:39:50;99245.53;;;0.53;79.54
9969;BME280;5025;48.890;9.278;2023-01-27T10:42:24;99250.84;;;0.53;79.81
9969;BME280;5025;48.890;9.278;2023-01-27T10:50:06;99257.22;;;0.61;79.49
9969;BME280;5025;48.890;9.278;2023-01-27T10:52:39;99257.91;;;0.63;79.46
9969;BME280;5025;48.890;9.278;2023-01-27T10:55:14;99263.22;;;0.63;79.41
9969;BME280;5025;48.890;9.278;2023-01-27T10:58:03;99256.22;;;0.62;79.31
9969;BME280;5025;48.890;9.278;2023-01-27T11:00:43;99256.22;;;0.62;79.18
9969;BME280;5025;48.890;9.278;2023-01-27T11:03:19;99260.25;;;0.66;79.23
9969;BME280;5025;48.890;9.278;2023-01-27T11:05:50;99255.78;;;0.66;78.97
9969;BME280;5025;48.890;9.278;2023-01-27T11:08:19;99249.63;;;0.66;79.15
9969;BME280;5025;48.890;9.278;2023-01-27T11:10:48;99255.63;;;0.68;79.01
9969;BME280;5025;48.890;9.278;2023-01-27T11:13:34;99251.00;;;0.70;78.97
9969;BME280;5025;48.890;9.278;2023-01-27T11:16:00;99252.97;;;0.68;78.71
9969;BME280;5025;48.890;9.278;2023-01-27T11:18:33;99251.97;;;0.69;78.76
9969;BME280;5025;48.890;9.278;2023-01-27T11:21:10;99243.84;;;0.70;78.78
9969;BME280;5025;48.890;9.278;2023-01-27T11:23:41;99248.34;;;0.70;78.66
9969;BME280;5025;48.890;9.278;2023-01-27T11:29:08;99241.88;;;0.73;78.46
9969;BME280;5025;48.890;9.278;2023-01-27T11:31:47;99233.72;;;0.74;78.36
9969;BME280;5025;48.890;9.278;2023-01-27T11:34:32;99233.06;;;0.72;78.32
9969;BME280;5025;48.890;9.278;2023-01-27T11:37:06;99230.41;;;0.72;78.36
9969;BME280;5025;48.890;9.278;2023-01-27T11:39:37;99234.03;;;0.71;78.18
9969;BME280;5025;48.890;9.278;2023-01-27T11:42:02;99241.72;;;0.74;78.18
9969;BME280;5025;48.890;9.278;2023-01-27T11:44:32;99248.41;;;0.78;78.30
9969;BME280;5025;48.890;9.278;2023-01-27T11:47:00;99238.38;;;0.72;78.22
9969;BME280;5025;48.890;9.278;2023-01-27T11:49:40;99227.59;;;0.74;78.00
9969;BME280;5025;48.890;9.278;2023-01-27T11:52:15;99235.56;;;0.74;78.07
9969;BME280;5025;48.890;9.278;2023-01-27T11:54:55;99227.28;;;0.77;78.05
9969;BME280;5025;48.890;9.278;2023-01-27T11:57:24;99227.28;;;0.77;77.99
9969;BME280;5025;48.890;9.278;2023-01-27T11:59:53;99219.00;;;0.80;77.84
9969;BME280;5025;48.890;9.278;2023-01-27T12:02:41;99217.78;;;0.74;77.83
9969;BME280;5025;48.890;9.278;2023-01-27T12:05:15;99229.28;;;0.75;77.95
9969;BME280;5025;48.890;9.278;2023-01-27T12:07:54;99225.44;;;0.77;77.78
9969;BME280;5025;48.890;9.278;2023-01-27T12:10:24;99223.97;;;0.75;77.59
9969;BME280;5025;48.890;9.278;2023-01-27T12:12:50;99220.44;;;0.74;77.76
9969;BME280;5025;48.890;9.278;2023-01-27T12:15:16;99210.81;;;0.73;77.73
9969;BME280;5025;48.890;9.278;2023-01-27T12:17:46;99213.47;;;0.73;77.85
9969;BME280;5025;48.890;9.278;2023-01-27T12:20:38;99208.00;;;0.75;77.58
9969;BME280;5025;48.890;9.278;2023-01-27T12:23:19;99207.16;;;0.74;77.72
9969;BME280;5025;48.890;9.278;2023-01-27T12:25:49;99208.00;;;0.75;77.51
9969;BME280;5025;48.890;9.278;2023-01-27T12:28:24;99200.81;;;0.67;77.67
9969;BME280;5025;48.890;9.278;2023-01-27T12:30:51;99203.47;;;0.67;77.73
9969;BME280;5025;48.890;9.278;2023-01-27T12:33:23;99200.50;;;0.70;77.58
9969;BME280;5025;48.890;9.278;2023-01-27T12:35:49;99199.66;;;0.69;77.61
9969;BME280;5025;48.890;9.278;2023-01-27T12:38:24;99200.50;;;0.70;77.59
9969;BME280;5025;48.890;9.278;2023-01-27T12:41:11;99201.31;;;0.70;77.65
9969;BME280;5025;48.890;9.278;2023-01-27T12:44:14;99203.66;;;0.74;77.47
9969;BME280;5025;48.890;9.278;2023-01-27T12:46:44;99201.16;;;0.72;77.50
9969;BME280;5025;48.890;9.278;2023-01-27T12:49:19;99206.13;;;0.67;77.44
9969;BME280;5025;48.890;9.278;2023-01-27T12:51:53;99207.31;;;0.73;77.49
9969;BME280;5025;48.890;9.278;2023-01-27T12:54:27;99209.16;;;0.72;77.46
9969;BME280;5025;48.890;9.278;2023-01-27T12:56:54;99201.16;;;0.72;77.31
9969;BME280;5025;48.890;9.278;2023-01-27T12:59:22;99195.72;;;0.56;77.47
9969;BME280;5025;48.890;9.278;2023-01-27T13:02:00;99199.84;;;0.50;77.73
9969;BME280;5025;48.890;9.278;2023-01-27T13:04:26;99201.44;;;0.43;77.88
9969;BME280;5025;48.890;9.278;2023-01-27T13:07:12;99207.50;;;0.53;77.80
9969;BME280;5025;48.890;9.278;2023-01-27T13:09:52;99203.38;;;0.59;77.56
9969;BME280;5025;48.890;9.278;2023-01-27T13:14:50;99191.31;;;0.64;77.50
9969;BME280;5025;48.890;9.278;2023-01-27T13:17:45;99198.97;;;0.67;77.51
9969;BME280;5025;48.890;9.278;2023-01-27T13:22:48;99198.66;;;0.70;77.18
9969;BME280;5025;48.890;9.278;2023-01-27T13:25:18;99203.16;;;0.70;77.36
9969;BME280;5025;48.890;9.278;2023-01-27T13:27:46;99204.81;;;0.71;77.39
9969;BME280;5025;48.890;9.278;2023-01-27T13:30:33;99209.97;;;0.73;77.35
9969;BME280;5025;48.890;9.278;2023-01-27T13:33:22;99212.47;;;0.74;77.31
9969;BME280;5025;48.890;9.278;2023-01-27T13:36:03;99210.50;;;0.76;77.35
9969;BME280;5025;48.890;9.278;2023-01-27T13:38:41;99214.00;;;0.77;77.09
9969;BME280;5025;48.890;9.278;2023-01-27T13:41:15;99210.50;;;0.76;77.14
9969;BME280;5025;48.890;9.278;2023-01-27T13:43:50;99215.84;;;0.76;77.34
9969;BME280;5025;48.890;9.278;2023-01-27T13:46:32;99220.28;;;0.76;77.22
9969;BME280;5025;48.890;9.278;2023-01-27T13:49:14;99214.97;;;0.76;77.15
9969;BME280;5025;48.890;9.278;2023-01-27T13:51:40;99223.81;;;0.76;77.14
9969;BME280;5025;48.890;9.278;2023-01-27T13:54:05;99225.44;;;0.77;77.24
9969;BME280;5025;48.890;9.278;2023-01-27T14:02:28;99234.59;;;0.75;77.34
9969;BME280;5025;48.890;9.278;2023-01-27T14:07:53;99239.75;;;0.76;77.14
9969;BME280;5025;48.890;9.278;2023-01-27T14:15:45;99251.38;;;0.75;77.25
9969;BME280;5025;48.890;9.278;2023-01-27T14:18:23;99244.91;;;0.78;77.07
9969;BME280;5025;48.890;9.278;2023-01-27T14:29:23;99242.88;;;0.71;77.19
9969;BME280;5025;48.890;9.278;2023-01-27T14:32:05;99255.84;;;0.75;77.15
9969;BME280;5025;48.890;9.278;2023-01-27T14:35:08;99249.69;;;0.74;77.07
9969;BME280;5025;48.890;9.278;2023-01-27T14:37:42;99259.19;;;0.77;77.13
9969;BME280;5025;48.890;9.278;2023-01-27T14:45:37;99251.06;;;0.78;77.08
9969;BME280;5025;48.890;9.278;2023-01-27T14:48:21;99252.75;;;0.79;77.07
9969;BME280;5025;48.890;9.278;2023-01-27T14:56:20;99246.41;;;0.80;77.11
9969;BME280;5025;48.890;9.278;2023-01-27T15:01:28;99244.06;;;0.77;76.92